• Join FlightAware (Why Join?)
  • Login
  • US Flag 
12:56PM EDT


 

Airport Tracker/Info


-or-


 

Live Flight TrackerFlight Track Log ✈ SKW5370 ✈ 19-May-2013 ✈ KLMT - KPDX

Flight Track Log - Related Links

Times and Time Zones

All times are in EDT time to prevent confusion due to time zone crossing. See the SKW5370 flight status page for this flight to view local times or setup timezone preferences in your user account.

Time Position Orientation Groundspeed Altitude Reporting Facility
EDT Latitude Longitude Course Direction KTS MPH feet Rate Location/Type
09:09AM 42.1814 -121.7472 338° Northwest 163 188 5,300  Level Seattle Center
09:10AM 42.2397 -121.7783 338° Northwest 184 212 7,600 1,980 Climbing Seattle Center
09:11AM 42.2922 -121.8089 337° Northwest 196 226 9,300 1,680 Climbing Seattle Center
09:12AM 42.3458 -121.8383 338° Northwest 204 235 11,000 1,680 Climbing Seattle Center
09:13AM 42.4031 -121.8446 344° North  Level FlightAware Approximate
09:13AM 42.4003 -121.8658 340° North 207 238 12,800  Level Seattle Center
09:14AM 42.4662 -121.8775 338° Northwest  Level FlightAware Approximate
09:14AM 42.4553 -121.8914 341° North 210 242 14,400  Level Seattle Center
09:15AM 42.5288 -121.9123 338° Northwest  Level FlightAware Approximate
09:16AM 42.5069 -121.9181 339° North 200 230 16,000  Level Seattle Center
09:17AM 42.5628 -121.9453 340° North 213 245 17,300 1,140 Climbing Seattle Center
09:18AM 42.6169 -121.9714 340° North 207 238 18,300 1,140 Climbing Seattle Center
09:19AM 42.6694 -121.9972 340° North 203 234 19,600 1,200 Climbing Seattle Center
09:20AM 42.7172 -122.0214 340° North 189 217 20,800 1,020 Climbing Seattle Center
09:21AM 42.7633 -122.0461 339° North 181 208 21,700 540 Climbing Seattle Center
09:22AM 42.8139 -122.0700 341° North 189 217 22,000 60 Climbing Seattle Center
09:23AM 42.8675 -122.0981 339° North 203 234 21,900 -60 Descending Seattle Center
09:24AM 42.9228 -122.1256 340° North 209 241 21,900  Level Seattle Center
09:25AM 42.9789 -122.1550 339° North 215 247 21,900  Level Seattle Center
09:26AM 43.0347 -122.1831 340° North 215 247 21,900  Level Seattle Center
09:27AM 43.0947 -122.2003 348° North 218 251 22,000  Climbing Seattle Center
09:28AM 43.1550 -122.2125 352° North 219 252 22,000 -60 Level Seattle Center
09:29AM 43.2156 -122.2247 352° North 222 255 21,900  Descending Seattle Center
09:30AM 43.2781 -122.2389 351° North 226 260 22,000  Climbing Seattle Center
09:31AM 43.3372 -122.2567 348° North 220 253 21,900  Descending Seattle Center
09:32AM 43.3989 -122.2711 350° North 223 257 22,000  Climbing Seattle Center
09:33AM 43.4606 -122.2839 351° North 224 258 22,000  Level Seattle Center
09:34AM 43.5219 -122.3025 348° North 225 259 22,000 -60 Level Seattle Center
09:35AM 43.5831 -122.3158 351° North 223 257 21,900  Descending Seattle Center
09:36AM 43.6453 -122.3311 350° North 225 259 22,000 -360 Climbing Seattle Center
09:37AM 43.7089 -122.3483 349° North 232 267 21,200 -960 Descending Seattle Center
09:38AM 43.7958 -122.3686 350° North 261 300 20,100 -600 Descending Seattle Center
09:39AM 43.8681 -122.3883 349° North 265 305 20,000 -60 Descending Seattle Center
09:40AM 43.9383 -122.4056 350° North 257 296 20,000  Level Seattle Center
09:41AM 44.0075 -122.4239 349° North 253 291 20,000 -480 Level Seattle Center
09:42AM 44.0761 -122.4425 349° North 252 290 19,100 -960 Descending Seattle Center
09:43AM 44.1522 -122.4628 349° North 275 316 18,100 -720 Descending Seattle Center
09:44AM 44.2289 -122.4811 350° North 280 322 17,700 -660 Descending Seattle Center
09:45AM 44.3044 -122.5003 350° North 278 320 16,800 -900 Descending Seattle Center
09:46AM 44.3808 -122.5194 350° North 279 321 16,000 -900 Descending Seattle Center
09:47AM 44.4558 -122.5400 349° North 277 319 15,100 -900 Descending Seattle Center
09:48AM 44.5306 -122.5581 350° North 274 315 14,300 -840 Descending Seattle Center
09:49AM 44.6053 -122.5775 350° North 273 314 13,500 -840 Descending Seattle Center
09:50AM 44.6786 -122.5981 349° North 271 312 12,700 -900 Descending Seattle Center
09:51AM 44.7542 -122.6183 349° North 274 315 11,800 -900 Descending Seattle Center
09:52AM 44.8283 -122.5969 12° North 279 321 11,000 -900 Descending Seattle Center
09:53AM 44.9103 -122.5658 15° North 281 323 10,100 -720 Descending Seattle Center
09:54AM 44.9844 -122.5342 17° North 281 323 9,600 -720 Descending Seattle Center
09:55AM 45.0592 -122.5017 17° North 282 325 8,700 -1,020 Descending Seattle Center
09:56AM 45.1356 -122.4686 17° North 286 329 7,600 -1,200 Descending Seattle Center
09:57AM 45.2114 -122.4317 19° North 288 331 6,300 -1,200 Descending Seattle Center
09:58AM 45.2892 -122.4261 North 286 329 5,200 -1,140 Descending Seattle Center
09:59AM 45.3672 -122.4375 354° North 284 327 4,100 -1,320 Descending Seattle Center
10:00AM 45.4414 -122.4347 North 280 322 2,600 -900 Descending Seattle Center
10:01AM 45.5047 -122.4303 North 248 285 2,300 -600 Descending Seattle Center
10:02AM 45.5561 -122.4961 318° Northwest 160 184 1,300 -900 Descending Seattle Center
10:03AM 45.5739 -122.5411 299° West 121 139 400 -480 Descending Seattle Center
10:04AM 45.5889 -122.5781 300° West 171 197 500 120 Climbing Seattle Center